Terminal Aerodrome Forecast
Issued by NWS

Home | Current Version | Previous Version | Text Only | Print | Product List | Glossary On
Versions: 1 2 3 4 5 6 7 8 9 10 11 12 13 14 15 16 17 18 19 20 21 22 23 24 25 26 27
000
FTUS41 KOKX 240520
TAFHPN
TAF
KHPN 240520Z 2406/2506 VRB03KT P6SM BKN060
     FM240900 VRB03KT P6SM SCT004 SCT050
     FM241400 17006KT P6SM SCT035 SCT070 SCT250
     FM250000 15003KT P6SM SCT010 SCT030 BKN250
      AMD NOT SKED=

USA.gov is the U.S. government's official web portal to all federal, state and local government web resources and services.